Terminal Aerodrome Forecast
Issued by NWS

Home | Current Version | Previous Version | Text Only | Print | Product List | Glossary On
Versions: 1 2 3 4 5 6 7 8 9 10 11 12 13 14 15 16
000
FTUS41 KGYX 301120
TAFPSM
TAF
KPSM 301120Z 3012/3112 25004KT P6SM SCT250
     FM301500 21007KT P6SM SCT050 BKN100
     FM302000 20008KT 6SM -TSRA BKN050CB OVC100
     FM310000 23004KT 4SM BR OVC040=

USA.gov is the U.S. government's official web portal to all federal, state and local government web resources and services.